TimeCDT,TemperatureF,Dew PointF,Humidity,Sea Level PressureIn,VisibilityMPH,Wind Direction,Wind SpeedMPH,Gust SpeedMPH,PrecipitationIn,Events,Conditions,WindDirDegrees,DateUTC
12:15 AM,67.1,67.1,100,29.72,10.0,NNW,4.6,-,N/A,,Overcast,340,2013-06-30 05:15:00
12:35 AM,67.1,66.7,99,29.72,10.0,North,4.6,-,N/A,,Overcast,350,2013-06-30 05:35:00
12:55 AM,67.1,66.7,99,29.72,10.0,North,3.5,-,N/A,,Overcast,350,2013-06-30 05:55:00
1:15 AM,66.6,66.2,99,29.72,10.0,North,3.5,-,N/A,,Mostly Cloudy,350,2013-06-30 06:15:00
1:35 AM,66.2,65.8,99,29.72,10.0,NNW,4.6,-,N/A,,Mostly Cloudy,340,2013-06-30 06:35:00
1:55 AM,66.2,65.8,99,29.72,7.0,North,4.6,-,N/A,,Mostly Cloudy,350,2013-06-30 06:55:00
2:15 AM,66.0,66.0,100,29.72,7.0,North,4.6,-,N/A,,Mostly Cloudy,360,2013-06-30 07:15:00
2:35 AM,66.2,66.2,100,29.72,7.0,North,4.6,-,N/A,,Scattered Clouds,350,2013-06-30 07:35:00
2:55 AM,66.6,66.4,99,29.72,7.0,North,5.8,-,N/A,,Overcast,360,2013-06-30 07:55:00
3:15 AM,66.7,66.4,99,29.72,7.0,North,6.9,-,N/A,,Overcast,10,2013-06-30 08:15:00
3:35 AM,66.7,66.4,99,29.73,5.0,North,6.9,-,N/A,Rain,Rain,360,2013-06-30 08:35:00
3:55 AM,66.2,66.2,100,29.74,2.5,North,9.2,-,0.08,Rain,Heavy Rain,10,2013-06-30 08:55:00
4:15 AM,66.2,66.2,100,29.74,3.0,North,5.8,-,0.05,Rain,Rain,360,2013-06-30 09:15:00
4:35 AM,66.2,66.2,100,29.74,7.0,North,9.2,-,0.05,,Overcast,360,2013-06-30 09:35:00
4:55 AM,66.2,65.8,99,29.75,7.0,North,8.1,-,0.05,,Overcast,350,2013-06-30 09:55:00
5:15 AM,65.8,65.5,99,29.75,7.0,North,8.1,-,N/A,,Overcast,360,2013-06-30 10:15:00
5:35 AM,65.5,65.3,99,29.76,7.0,North,6.9,-,N/A,,Overcast,360,2013-06-30 10:35:00
5:55 AM,65.3,64.9,99,29.77,7.0,North,5.8,-,N/A,,Overcast,350,2013-06-30 10:55:00
6:15 AM,65.3,64.9,99,29.77,7.0,North,5.8,-,N/A,,Overcast,350,2013-06-30 11:15:00
6:35 AM,65.3,64.9,99,29.78,7.0,North,6.9,-,N/A,,Overcast,350,2013-06-30 11:35:00
6:55 AM,65.3,64.0,96,29.78,7.0,NNW,6.9,-,N/A,,Overcast,340,2013-06-30 11:55:00
7:15 AM,65.5,63.7,94,29.79,10.0,NNW,8.1,-,N/A,,Overcast,340,2013-06-30 12:15:00
7:35 AM,65.8,63.7,93,29.79,10.0,North,6.9,-,N/A,,Overcast,350,2013-06-30 12:35:00
7:55 AM,66.2,63.1,90,29.80,10.0,North,8.1,-,N/A,,Overcast,350,2013-06-30 12:55:00
8:15 AM,67.5,63.7,88,29.80,10.0,NNW,9.2,-,N/A,,Overcast,340,2013-06-30 13:15:00
8:35 AM,67.1,63.5,88,29.81,10.0,North,8.1,-,N/A,,Overcast,350,2013-06-30 13:35:00
8:55 AM,67.5,63.5,87,29.81,10.0,NNW,10.4,-,N/A,,Overcast,340,2013-06-30 13:55:00
9:15 AM,68.0,63.5,85,29.82,10.0,NNW,9.2,-,N/A,,Overcast,340,2013-06-30 14:15:00
9:35 AM,67.6,63.5,87,29.82,10.0,North,8.1,-,N/A,,Overcast,350,2013-06-30 14:35:00
9:55 AM,68.0,63.7,86,29.82,10.0,NNW,10.4,-,N/A,,Overcast,340,2013-06-30 14:55:00
10:15 AM,68.9,64.0,84,29.82,10.0,NNW,8.1,-,N/A,,Overcast,340,2013-06-30 15:15:00
10:35 AM,69.3,64.4,84,29.83,10.0,North,8.1,-,N/A,,Overcast,350,2013-06-30 15:35:00
10:55 AM,70.3,65.1,83,29.83,10.0,NNW,8.1,-,N/A,,Overcast,330,2013-06-30 15:55:00
11:15 AM,69.8,64.6,83,29.83,10.0,North,9.2,-,N/A,,Overcast,350,2013-06-30 16:15:00
11:35 AM,69.6,64.6,84,29.83,10.0,NNW,8.1,-,N/A,,Overcast,340,2013-06-30 16:35:00
11:55 AM,70.3,64.9,83,29.83,10.0,NNW,10.4,-,N/A,,Overcast,340,2013-06-30 16:55:00
12:15 PM,72.9,65.8,79,29.83,10.0,NNW,6.9,-,N/A,,Overcast,330,2013-06-30 17:15:00
12:35 PM,73.2,65.7,77,29.83,10.0,NNW,9.2,-,N/A,,Mostly Cloudy,340,2013-06-30 17:35:00
12:55 PM,74.3,65.8,75,29.82,10.0,NNW,9.2,-,N/A,,Mostly Cloudy,330,2013-06-30 17:55:00
1:15 PM,72.1,67.3,85,29.82,10.0,NNW,10.4,-,0.17,,Mostly Cloudy,340,2013-06-30 18:15:00
1:35 PM,74.3,66.9,78,29.82,10.0,North,8.1,-,0.17,,Mostly Cloudy,350,2013-06-30 18:35:00
1:55 PM,74.3,66.2,76,29.82,10.0,North,11.5,-,0.17,,Mostly Cloudy,350,2013-06-30 18:55:00
2:15 PM,73.0,66.0,79,29.83,10.0,NE,15.0,20.7,N/A,Rain,Light Rain,40,2013-06-30 19:15:00
2:35 PM,67.6,66.4,96,29.83,2.5,North,9.2,-,0.12,Rain,Heavy Rain,10,2013-06-30 19:35:00
2:55 PM,68.4,66.4,93,29.83,10.0,North,5.8,-,0.13,Rain,Light Rain,360,2013-06-30 19:55:00
3:15 PM,69.1,67.6,95,29.82,7.0,NNW,5.8,-,N/A,,Overcast,340,2013-06-30 20:15:00
3:35 PM,69.8,67.5,92,29.83,7.0,North,8.1,-,N/A,Rain,Light Rain,360,2013-06-30 20:35:00
3:55 PM,69.4,66.4,90,29.83,10.0,NNE,8.1,-,N/A,Rain,Light Rain,20,2013-06-30 20:55:00
4:15 PM,68.9,66.2,91,29.83,10.0,North,4.6,-,N/A,Rain,Light Rain,10,2013-06-30 21:15:00
4:35 PM,69.6,66.6,90,29.83,10.0,North,4.6,-,N/A,,Mostly Cloudy,350,2013-06-30 21:35:00
4:55 PM,70.3,67.3,90,29.83,10.0,NNW,3.5,-,N/A,,Mostly Cloudy,340,2013-06-30 21:55:00
5:15 PM,71.4,67.5,87,29.83,10.0,NNW,3.5,-,N/A,,Scattered Clouds,340,2013-06-30 22:15:00
5:35 PM,71.8,68.4,89,29.83,10.0,WNW,4.6,-,N/A,Thunderstorm,Scattered Clouds,290,2013-06-30 22:35:00
5:55 PM,70.9,68.0,91,29.83,10.0,Calm,Calm,-,N/A,,Scattered Clouds,0,2013-06-30 22:55:00
6:15 PM,71.6,68.4,89,29.83,10.0,NNW,5.8,-,N/A,,Scattered Clouds,340,2013-06-30 23:15:00
6:35 PM,72.3,66.7,83,29.83,10.0,North,8.1,-,N/A,,Clear,10,2013-06-30 23:35:00
6:55 PM,72.0,66.2,82,29.84,10.0,North,8.1,-,N/A,,Scattered Clouds,10,2013-06-30 23:55:00
7:15 PM,71.8,66.6,84,29.84,10.0,NE,5.8,-,N/A,,Mostly Cloudy,50,2013-07-01 00:15:00
7:35 PM,69.8,64.6,83,29.85,10.0,ENE,5.8,-,N/A,Thunderstorm,Overcast,70,2013-07-01 00:35:00
7:55 PM,68.9,64.4,86,29.85,10.0,ENE,4.6,-,N/A,,Scattered Clouds,60,2013-07-01 00:55:00
8:15 PM,68.9,64.8,87,29.85,10.0,Calm,Calm,-,N/A,,Clear,0,2013-07-01 01:15:00
8:35 PM,68.4,64.9,89,29.86,10.0,Calm,Calm,-,N/A,,Mostly Cloudy,0,2013-07-01 01:35:00
8:55 PM,68.4,65.3,90,29.86,10.0,Calm,Calm,-,N/A,,Overcast,0,2013-07-01 01:55:00
9:15 PM,68.0,65.7,92,29.87,10.0,North,3.5,-,N/A,,Mostly Cloudy,360,2013-07-01 02:15:00
9:35 PM,68.0,66.4,95,29.87,10.0,North,3.5,-,N/A,,Mostly Cloudy,360,2013-07-01 02:35:00
9:55 PM,68.4,65.5,90,29.88,10.0,North,4.6,-,N/A,,Mostly Cloudy,360,2013-07-01 02:55:00
10:15 PM,68.4,65.3,90,29.88,10.0,North,5.8,-,N/A,,Mostly Cloudy,360,2013-07-01 03:15:00
10:35 PM,68.2,64.4,88,29.88,10.0,NNE,3.5,-,N/A,,Overcast,20,2013-07-01 03:35:00
10:55 PM,68.0,63.7,86,29.89,10.0,NNE,4.6,-,N/A,,Mostly Cloudy,30,2013-07-01 03:55:00
11:15 PM,67.8,63.5,86,29.88,10.0,NNE,3.5,-,N/A,,Scattered Clouds,30,2013-07-01 04:15:00
11:35 PM,68.0,63.9,87,29.89,10.0,Calm,Calm,-,N/A,,Drizzle,0,2013-07-01 04:35:00
11:55 PM,67.5,64.8,91,29.89,10.0,Calm,Calm,-,N/A,,Light Drizzle,0,2013-07-01 04:55:00